createdAt,value
2023-03-01T00:02:17.524Z,7.05
2023-03-01T00:07:18.999Z,7.80
2023-03-01T00:12:20.634Z,7.35
2023-03-01T00:17:22.123Z,7.90
2023-03-01T00:22:24.330Z,7.75
2023-03-01T00:27:25.713Z,7.40
2023-03-01T00:32:27.064Z,8.32
2023-03-01T00:37:28.610Z,7.63
2023-03-01T00:42:29.947Z,7.78
2023-03-01T00:47:31.323Z,7.82
2023-03-01T00:52:32.730Z,8.20
2023-03-01T00:57:34.359Z,8.68
2023-03-01T01:02:36.458Z,7.18
2023-03-01T01:07:38.114Z,8.07
2023-03-01T01:12:39.444Z,7.85
2023-03-01T01:17:41.766Z,7.90
2023-03-01T01:22:43.208Z,7.93
2023-03-01T01:27:44.709Z,8.60
2023-03-01T01:32:46.128Z,8.18
2023-03-01T01:37:47.440Z,9.32
2023-03-01T01:42:48.855Z,7.90
2023-03-01T01:47:51.870Z,8.50
2023-03-01T01:52:54.236Z,8.48
2023-03-01T01:58:00.550Z,8.35
2023-03-01T02:03:05.695Z,8.70
2023-03-01T02:08:09.154Z,8.93
2023-03-01T02:13:11.716Z,8.88
2023-03-01T02:18:17.768Z,7.70
2023-03-01T02:23:19.220Z,7.97
2023-03-01T02:28:26.984Z,8.02
2023-03-01T02:38:29.992Z,7.95
2023-03-01T02:43:33.809Z,8.77
2023-03-01T02:48:53.022Z,9.10
2023-03-01T02:54:24.032Z,9.38
2023-03-01T02:59:31.042Z,8.35
2023-03-01T03:04:32.840Z,7.10
2023-03-01T03:09:34.172Z,9.00
2023-03-01T03:14:35.906Z,9.00
2023-03-01T03:19:37.276Z,8.27
2023-03-01T03:24:38.865Z,9.38
2023-03-01T03:29:40.180Z,9.30
2023-03-01T03:34:41.531Z,9.40
2023-03-01T03:39:42.881Z,10.10
2023-03-01T03:44:44.207Z,11.35
2023-03-01T03:49:45.550Z,9.98
2023-03-01T03:54:46.944Z,9.88
2023-03-01T03:59:48.338Z,9.27
2023-03-01T04:04:52.969Z,8.40
2023-03-01T04:09:54.309Z,9.55
2023-03-01T04:14:55.633Z,9.82
2023-03-01T04:19:56.961Z,9.25
2023-03-01T04:24:59.156Z,8.90
2023-03-01T04:30:00.933Z,9.90
2023-03-01T04:35:02.411Z,9.30
2023-03-01T04:40:17.285Z,9.65
2023-03-01T04:45:19.054Z,10.25
2023-03-01T04:50:21.366Z,10.48
2023-03-01T04:55:22.710Z,8.40
2023-03-01T05:00:24.378Z,9.65
2023-03-01T05:05:37.406Z,9.23
2023-03-01T05:10:39.686Z,8.65
2023-03-01T05:15:41.117Z,8.68
2023-03-01T05:20:42.820Z,8.98
2023-03-01T05:25:44.154Z,8.45
2023-03-01T05:30:46.360Z,9.15
2023-03-01T05:35:49.538Z,9.18
2023-03-01T05:40:51.089Z,9.02
2023-03-01T05:45:52.480Z,8.70
2023-03-01T05:50:53.831Z,10.40
2023-03-01T05:55:55.192Z,10.32
2023-03-01T06:00:57.333Z,9.25
2023-03-01T06:05:59.438Z,9.38
2023-03-01T06:11:00.806Z,10.38
2023-03-01T06:16:04.955Z,9.18
2023-03-01T06:21:07.808Z,9.38
2023-03-01T06:26:09.765Z,9.70
2023-03-01T06:31:11.270Z,8.95
2023-03-01T06:36:12.745Z,8.50
2023-03-01T06:41:14.161Z,10.65
2023-03-01T06:46:15.537Z,10.73
2023-03-01T06:51:16.970Z,10.02
2023-03-01T06:56:18.352Z,10.00
2023-03-01T07:01:19.728Z,9.68
2023-03-01T07:06:22.123Z,9.18
2023-03-01T07:11:24.122Z,9.05
2023-03-01T07:16:25.524Z,8.93
2023-03-01T07:21:26.892Z,9.25
2023-03-01T07:26:28.551Z,8.93
2023-03-01T07:31:30.139Z,9.73
2023-03-01T07:36:31.805Z,10.10
2023-03-01T07:41:33.341Z,10.10
2023-03-01T07:46:34.690Z,10.50
2023-03-01T07:51:36.240Z,9.70
2023-03-01T07:56:37.572Z,10.13
2023-03-01T08:01:39.151Z,9.98
2023-03-01T08:06:40.603Z,10.23
2023-03-01T08:11:42.011Z,10.73
2023-03-01T08:16:43.707Z,9.73
2023-03-01T08:21:45.102Z,11.43
2023-03-01T08:26:46.641Z,10.18
2023-03-01T08:31:49.346Z,10.75
2023-03-01T08:36:52.633Z,10.52
2023-03-01T08:41:54.301Z,8.75
2023-03-01T08:46:56.606Z,11.30
2023-03-01T08:51:58.088Z,9.15
2023-03-01T08:57:02.857Z,10.23
2023-03-01T09:02:06.094Z,9.43
2023-03-01T09:07:08.223Z,9.88
2023-03-01T09:12:09.786Z,9.35
2023-03-01T09:17:11.310Z,9.38
2023-03-01T09:22:12.776Z,10.20
2023-03-01T09:27:15.514Z,10.25
2023-03-01T09:32:16.965Z,8.85
2023-03-01T09:37:18.439Z,9.65
2023-03-01T09:42:19.840Z,8.85
2023-03-01T09:47:28.704Z,10.35
2023-03-01T09:52:41.947Z,9.75
2023-03-01T09:57:54.077Z,9.88
2023-03-01T10:03:47.452Z,10.27
2023-03-01T10:08:57.309Z,8.70
2023-03-01T10:14:16.503Z,9.35
2023-03-01T10:19:42.240Z,9.80
2023-03-01T10:24:44.285Z,9.13
2023-03-01T10:30:18.019Z,10.35
2023-03-01T10:35:29.663Z,9.73
2023-03-01T10:40:32.515Z,9.98
2023-03-01T10:45:37.088Z,9.52
2023-03-01T10:50:42.258Z,10.48
2023-03-01T10:55:44.658Z,9.82
2023-03-01T11:00:57.726Z,9.98
2023-03-01T11:06:04.073Z,9.65
2023-03-01T11:11:19.318Z,8.43
2023-03-01T11:16:26.841Z,8.82
2023-03-01T11:26:37.310Z,8.70
2023-03-01T11:31:56.809Z,9.43
2023-03-01T11:37:10.034Z,8.13
2023-03-01T11:42:20.627Z,8.90
2023-03-01T11:47:43.044Z,8.50
2023-03-01T11:53:18.320Z,7.65
2023-03-01T11:58:46.618Z,7.93
2023-03-01T12:04:06.746Z,7.97
2023-03-01T12:09:13.819Z,7.68
2023-03-01T12:14:36.255Z,8.75
2023-03-01T12:19:51.852Z,7.30
2023-03-01T12:25:05.358Z,6.32
2023-03-01T12:30:37.584Z,7.07
2023-03-01T12:36:07.154Z,6.50
2023-03-01T12:42:04.959Z,5.93
2023-03-01T12:47:20.877Z,6.68
2023-03-01T12:52:27.546Z,7.72
2023-03-01T12:57:44.007Z,7.33
2023-03-01T13:03:03.935Z,7.43
2023-03-01T13:08:34.673Z,7.22
2023-03-01T13:13:36.050Z,5.85
2023-03-01T13:18:37.486Z,6.35
2023-03-01T13:23:40.743Z,6.32
2023-03-01T13:28:56.895Z,6.82
2023-03-01T13:34:08.140Z,6.53
2023-03-01T13:39:32.242Z,6.95
2023-03-01T13:44:37.406Z,5.40
2023-03-01T13:49:54.825Z,6.43
2023-03-01T13:54:57.742Z,5.95
2023-03-01T13:59:59.096Z,6.95
2023-03-01T14:05:01.333Z,6.45
2023-03-01T14:10:06.794Z,5.25
2023-03-01T14:15:41.957Z,6.80
2023-03-01T14:20:52.157Z,5.97
2023-03-01T14:25:56.587Z,6.22
2023-03-01T14:31:00.318Z,6.30
2023-03-01T14:36:07.826Z,6.22
2023-03-01T14:46:30.504Z,6.47
2023-03-01T14:51:37.750Z,5.72
2023-03-01T14:56:45.754Z,6.45
2023-03-01T15:01:48.393Z,6.43
2023-03-01T15:07:05.860Z,6.28
2023-03-01T15:12:45.963Z,6.00
2023-03-01T15:17:53.753Z,7.03
2023-03-01T15:22:56.390Z,5.10
2023-03-01T15:27:59.556Z,5.45
2023-03-01T15:33:29.894Z,5.28
2023-03-01T15:38:41.345Z,6.53
2023-03-01T15:43:47.601Z,5.75
2023-03-01T15:48:53.288Z,6.60
2023-03-01T15:53:54.970Z,5.28
2023-03-01T15:59:01.227Z,6.47
2023-03-01T16:04:02.614Z,5.68
2023-03-01T16:09:03.974Z,5.40
2023-03-01T16:14:05.352Z,6.25
2023-03-01T16:19:06.822Z,5.82
2023-03-01T16:24:08.631Z,5.60
2023-03-01T16:29:10.098Z,5.75
2023-03-01T16:34:11.698Z,5.60
2023-03-01T16:39:13.044Z,6.10
2023-03-01T16:44:15.881Z,5.35
2023-03-01T16:49:17.349Z,6.68
2023-03-01T16:54:19.057Z,5.55
2023-03-01T16:59:20.712Z,6.18
2023-03-01T17:04:22.291Z,5.65
2023-03-01T17:09:23.905Z,5.72
2023-03-01T17:14:25.295Z,5.35
2023-03-01T17:19:26.678Z,5.68
2023-03-01T17:24:28.254Z,6.35
2023-03-01T17:29:29.973Z,6.18
2023-03-01T17:34:33.001Z,5.78
2023-03-01T17:39:36.354Z,6.00
2023-03-01T17:44:38.924Z,6.13
2023-03-01T17:49:40.394Z,6.43
2023-03-01T17:54:41.815Z,7.07
2023-03-01T17:59:43.186Z,11.73
2023-03-01T18:04:44.517Z,7.88
2023-03-01T18:09:45.905Z,6.70
2023-03-01T18:14:53.286Z,6.55
2023-03-01T18:19:56.786Z,7.18
2023-03-01T18:24:58.184Z,6.55
2023-03-01T18:29:59.757Z,7.22
2023-03-01T18:35:01.410Z,6.80
2023-03-01T18:40:02.831Z,6.57
2023-03-01T18:45:04.537Z,6.38
2023-03-01T18:50:06.374Z,5.80
2023-03-01T18:55:08.081Z,6.15
2023-03-01T19:00:10.743Z,6.40
2023-03-01T19:05:12.134Z,6.10
2023-03-01T19:10:13.599Z,5.88
2023-03-01T19:15:16.271Z,6.38
2023-03-01T19:20:17.706Z,6.80
2023-03-01T19:25:19.068Z,6.22
2023-03-01T19:30:20.586Z,6.72
2023-03-01T19:35:23.370Z,7.75
2023-03-01T19:40:24.764Z,7.35
2023-03-01T19:45:33.324Z,7.30
2023-03-01T19:50:35.158Z,6.47
2023-03-01T19:55:37.585Z,6.85
2023-03-01T20:00:40.540Z,6.57
2023-03-01T20:05:43.627Z,6.85
2023-03-01T20:10:45.190Z,7.18
2023-03-01T20:15:46.868Z,7.95
2023-03-01T20:20:50.094Z,7.65
2023-03-01T20:25:51.797Z,7.80
2023-03-01T20:30:53.169Z,6.47
2023-03-01T20:35:55.163Z,7.35
2023-03-01T20:41:00.938Z,7.97
2023-03-01T20:46:06.821Z,7.40
2023-03-01T20:51:09.456Z,7.53
2023-03-01T20:56:13.532Z,7.45
2023-03-01T21:01:18.586Z,8.25
2023-03-01T21:06:20.049Z,7.03
2023-03-01T21:11:25.128Z,6.85
2023-03-01T21:16:26.619Z,8.18
2023-03-01T21:21:28.347Z,7.45
2023-03-01T21:26:30.122Z,7.75
2023-03-01T21:31:35.024Z,6.97
2023-03-01T21:36:36.922Z,6.65
2023-03-01T21:41:38.522Z,6.90
2023-03-01T21:46:39.889Z,7.00
2023-03-01T21:51:41.271Z,6.43
2023-03-01T21:56:44.464Z,6.70
2023-03-01T22:01:46.556Z,7.05
2023-03-01T22:06:47.900Z,7.07
2023-03-01T22:11:52.726Z,5.57
2023-03-01T22:16:54.831Z,6.63
2023-03-01T22:21:56.187Z,6.95
2023-03-01T22:26:57.642Z,6.35
2023-03-01T22:31:59.199Z,5.72
2023-03-01T22:37:00.648Z,6.88
2023-03-01T22:42:02.026Z,6.88
2023-03-01T22:47:03.427Z,6.07
2023-03-01T22:52:05.065Z,7.53
2023-03-01T22:57:06.434Z,6.68
2023-03-01T23:02:07.832Z,6.97
2023-03-01T23:07:09.627Z,6.70
2023-03-01T23:12:10.966Z,7.80
2023-03-01T23:17:12.880Z,7.22
2023-03-01T23:22:14.287Z,6.70
2023-03-01T23:27:18.758Z,7.38
2023-03-01T23:32:20.164Z,7.03
2023-03-01T23:37:21.584Z,6.93
2023-03-01T23:42:22.951Z,7.53
2023-03-01T23:47:24.278Z,6.15
2023-03-01T23:52:25.589Z,6.18
2023-03-01T23:57:28.543Z,7.85
